sensor_id;sensor_type;location;lat;lon;timestamp;P1;durP1;ratioP1;P2;durP2;ratioP2
37903;SDS011;23738;50.422;18.758;2023-05-10T00:02:14;6.40;;;5.60;;
37903;SDS011;23738;50.422;18.758;2023-05-10T00:04:41;6.90;;;6.10;;
37903;SDS011;23738;50.422;18.758;2023-05-10T00:07:08;12.70;;;6.40;;
37903;SDS011;23738;50.422;18.758;2023-05-10T00:09:36;8.50;;;6.00;;
37903;SDS011;23738;50.422;18.758;2023-05-10T00:12:04;8.20;;;6.40;;
37903;SDS011;23738;50.422;18.758;2023-05-10T00:14:31;7.10;;;6.10;;
37903;SDS011;23738;50.422;18.758;2023-05-10T00:16:59;9.30;;;6.60;;
37903;SDS011;23738;50.422;18.758;2023-05-10T00:19:26;8.80;;;6.30;;
37903;SDS011;23738;50.422;18.758;2023-05-10T00:21:53;11.50;;;6.70;;
37903;SDS011;23738;50.422;18.758;2023-05-10T00:24:21;10.50;;;6.80;;
37903;SDS011;23738;50.422;18.758;2023-05-10T00:26:48;9.40;;;7.40;;
37903;SDS011;23738;50.422;18.758;2023-05-10T00:29:15;8.50;;;6.90;;
37903;SDS011;23738;50.422;18.758;2023-05-10T00:31:42;8.60;;;6.90;;
37903;SDS011;23738;50.422;18.758;2023-05-10T00:34:09;8.10;;;6.20;;
37903;SDS011;23738;50.422;18.758;2023-05-10T00:36:36;7.20;;;6.50;;
37903;SDS011;23738;50.422;18.758;2023-05-10T00:39:04;9.00;;;6.30;;
37903;SDS011;23738;50.422;18.758;2023-05-10T00:41:31;9.60;;;6.60;;
37903;SDS011;23738;50.422;18.758;2023-05-10T00:43:58;6.80;;;6.00;;
37903;SDS011;23738;50.422;18.758;2023-05-10T00:46:26;9.60;;;6.60;;
37903;SDS011;23738;50.422;18.758;2023-05-10T00:48:54;7.60;;;6.30;;
37903;SDS011;23738;50.422;18.758;2023-05-10T00:51:21;11.50;;;6.70;;
37903;SDS011;23738;50.422;18.758;2023-05-10T00:53:49;10.20;;;6.70;;
37903;SDS011;23738;50.422;18.758;2023-05-10T00:56:17;6.10;;;5.50;;
37903;SDS011;23738;50.422;18.758;2023-05-10T00:58:46;7.60;;;6.20;;
37903;SDS011;23738;50.422;18.758;2023-05-10T01:01:13;8.70;;;6.00;;
37903;SDS011;23738;50.422;18.758;2023-05-10T01:03:40;14.10;;;6.30;;
37903;SDS011;23738;50.422;18.758;2023-05-10T01:06:08;7.90;;;6.80;;
37903;SDS011;23738;50.422;18.758;2023-05-10T01:08:35;8.70;;;6.90;;
37903;SDS011;23738;50.422;18.758;2023-05-10T01:11:03;8.40;;;6.60;;
37903;SDS011;23738;50.422;18.758;2023-05-10T01:13:32;10.10;;;6.70;;
37903;SDS011;23738;50.422;18.758;2023-05-10T01:16:03;8.80;;;7.70;;
37903;SDS011;23738;50.422;18.758;2023-05-10T01:18:32;6.40;;;5.80;;
37903;SDS011;23738;50.422;18.758;2023-05-10T01:21:04;12.10;;;7.30;;
37903;SDS011;23738;50.422;18.758;2023-05-10T01:23:48;12.00;;;7.50;;
37903;SDS011;23738;50.422;18.758;2023-05-10T01:30:01;11.90;;;10.70;;
37903;SDS011;23738;50.422;18.758;2023-05-10T01:32:42;14.70;;;13.30;;
37903;SDS011;23738;50.422;18.758;2023-05-10T01:35:15;10.10;;;9.10;;
37903;SDS011;23738;50.422;18.758;2023-05-10T01:37:50;8.40;;;7.50;;
37903;SDS011;23738;50.422;18.758;2023-05-10T01:42:57;9.90;;;6.80;;
37903;SDS011;23738;50.422;18.758;2023-05-10T01:45:29;8.40;;;7.00;;
37903;SDS011;23738;50.422;18.758;2023-05-10T01:48:03;11.10;;;7.20;;
37903;SDS011;23738;50.422;18.758;2023-05-10T01:50:34;11.10;;;7.10;;
37903;SDS011;23738;50.422;18.758;2023-05-10T01:53:05;12.20;;;7.60;;
37903;SDS011;23738;50.422;18.758;2023-05-10T01:55:35;8.50;;;6.40;;
37903;SDS011;23738;50.422;18.758;2023-05-10T01:58:08;8.20;;;6.80;;
37903;SDS011;23738;50.422;18.758;2023-05-10T02:00:41;8.50;;;6.50;;
37903;SDS011;23738;50.422;18.758;2023-05-10T02:03:10;7.40;;;6.00;;
37903;SDS011;23738;50.422;18.758;2023-05-10T02:05:39;10.40;;;5.70;;
37903;SDS011;23738;50.422;18.758;2023-05-10T02:08:10;7.60;;;5.60;;
37903;SDS011;23738;50.422;18.758;2023-05-10T02:10:39;10.20;;;6.00;;
37903;SDS011;23738;50.422;18.758;2023-05-10T02:13:08;11.60;;;6.20;;
37903;SDS011;23738;50.422;18.758;2023-05-10T02:15:37;9.80;;;6.30;;
37903;SDS011;23738;50.422;18.758;2023-05-10T02:18:06;8.90;;;5.40;;
37903;SDS011;23738;50.422;18.758;2023-05-10T02:20:35;9.80;;;6.30;;
37903;SDS011;23738;50.422;18.758;2023-05-10T02:23:04;11.00;;;6.00;;
37903;SDS011;23738;50.422;18.758;2023-05-10T02:25:33;13.30;;;6.00;;
37903;SDS011;23738;50.422;18.758;2023-05-10T02:28:02;8.10;;;6.10;;
37903;SDS011;23738;50.422;18.758;2023-05-10T02:30:31;7.00;;;5.90;;
37903;SDS011;23738;50.422;18.758;2023-05-10T02:33:00;8.20;;;6.60;;
37903;SDS011;23738;50.422;18.758;2023-05-10T02:35:30;8.10;;;6.30;;
37903;SDS011;23738;50.422;18.758;2023-05-10T02:38:00;9.60;;;6.60;;
37903;SDS011;23738;50.422;18.758;2023-05-10T02:40:28;6.50;;;5.70;;
37903;SDS011;23738;50.422;18.758;2023-05-10T02:42:58;9.10;;;5.80;;
37903;SDS011;23738;50.422;18.758;2023-05-10T02:45:29;8.70;;;5.50;;
37903;SDS011;23738;50.422;18.758;2023-05-10T02:47:57;10.60;;;5.70;;
37903;SDS011;23738;50.422;18.758;2023-05-10T02:50:25;7.60;;;6.30;;
37903;SDS011;23738;50.422;18.758;2023-05-10T02:52:56;7.30;;;5.80;;
37903;SDS011;23738;50.422;18.758;2023-05-10T02:55:30;8.90;;;6.40;;
37903;SDS011;23738;50.422;18.758;2023-05-10T02:58:01;10.10;;;6.50;;
37903;SDS011;23738;50.422;18.758;2023-05-10T03:00:29;8.90;;;6.00;;
37903;SDS011;23738;50.422;18.758;2023-05-10T03:02:57;6.60;;;5.80;;
37903;SDS011;23738;50.422;18.758;2023-05-10T03:05:24;12.30;;;6.20;;
37903;SDS011;23738;50.422;18.758;2023-05-10T03:07:52;9.20;;;6.30;;
37903;SDS011;23738;50.422;18.758;2023-05-10T03:10:20;11.90;;;6.40;;
37903;SDS011;23738;50.422;18.758;2023-05-10T03:12:55;18.30;;;6.00;;
37903;SDS011;23738;50.422;18.758;2023-05-10T03:15:31;11.70;;;6.30;;
37903;SDS011;23738;50.422;18.758;2023-05-10T03:18:06;10.30;;;6.30;;
37903;SDS011;23738;50.422;18.758;2023-05-10T03:20:38;10.20;;;5.80;;
37903;SDS011;23738;50.422;18.758;2023-05-10T03:23:10;7.60;;;6.30;;
37903;SDS011;23738;50.422;18.758;2023-05-10T03:25:43;8.50;;;5.80;;
37903;SDS011;23738;50.422;18.758;2023-05-10T03:28:12;11.70;;;7.20;;
37903;SDS011;23738;50.422;18.758;2023-05-10T03:30:42;11.90;;;6.10;;
37903;SDS011;23738;50.422;18.758;2023-05-10T03:33:10;9.10;;;7.50;;
37903;SDS011;23738;50.422;18.758;2023-05-10T03:35:38;10.10;;;6.70;;
37903;SDS011;23738;50.422;18.758;2023-05-10T03:38:05;8.40;;;6.40;;
37903;SDS011;23738;50.422;18.758;2023-05-10T03:40:33;8.30;;;6.00;;
37903;SDS011;23738;50.422;18.758;2023-05-10T03:43:00;9.00;;;6.30;;
37903;SDS011;23738;50.422;18.758;2023-05-10T03:45:27;17.30;;;5.90;;
37903;SDS011;23738;50.422;18.758;2023-05-10T03:47:54;8.20;;;6.20;;
37903;SDS011;23738;50.422;18.758;2023-05-10T03:50:22;5.80;;;5.10;;
37903;SDS011;23738;50.422;18.758;2023-05-10T03:52:50;8.20;;;6.40;;
37903;SDS011;23738;50.422;18.758;2023-05-10T03:55:17;9.90;;;6.40;;
37903;SDS011;23738;50.422;18.758;2023-05-10T03:57:45;11.50;;;6.10;;
37903;SDS011;23738;50.422;18.758;2023-05-10T04:00:13;9.00;;;6.80;;
37903;SDS011;23738;50.422;18.758;2023-05-10T04:02:41;9.00;;;6.00;;
37903;SDS011;23738;50.422;18.758;2023-05-10T04:05:09;10.20;;;6.80;;
37903;SDS011;23738;50.422;18.758;2023-05-10T04:07:37;10.90;;;6.70;;
37903;SDS011;23738;50.422;18.758;2023-05-10T04:10:05;7.00;;;5.60;;
37903;SDS011;23738;50.422;18.758;2023-05-10T04:12:33;9.70;;;7.00;;
37903;SDS011;23738;50.422;18.758;2023-05-10T04:15:01;11.00;;;6.70;;
37903;SDS011;23738;50.422;18.758;2023-05-10T04:17:28;12.30;;;7.10;;
37903;SDS011;23738;50.422;18.758;2023-05-10T04:19:56;9.50;;;6.80;;
37903;SDS011;23738;50.422;18.758;2023-05-10T04:22:24;8.00;;;6.40;;
37903;SDS011;23738;50.422;18.758;2023-05-10T04:24:51;8.20;;;7.10;;
37903;SDS011;23738;50.422;18.758;2023-05-10T04:27:18;10.10;;;7.20;;
37903;SDS011;23738;50.422;18.758;2023-05-10T04:29:46;9.00;;;6.80;;
37903;SDS011;23738;50.422;18.758;2023-05-10T04:32:13;8.60;;;7.70;;
37903;SDS011;23738;50.422;18.758;2023-05-10T04:34:42;9.70;;;7.50;;
37903;SDS011;23738;50.422;18.758;2023-05-10T04:37:09;12.70;;;9.20;;
37903;SDS011;23738;50.422;18.758;2023-05-10T04:39:36;13.90;;;10.90;;
37903;SDS011;23738;50.422;18.758;2023-05-10T04:42:03;22.40;;;14.60;;
37903;SDS011;23738;50.422;18.758;2023-05-10T04:44:31;23.40;;;15.20;;
37903;SDS011;23738;50.422;18.758;2023-05-10T04:46:58;23.70;;;15.30;;
37903;SDS011;23738;50.422;18.758;2023-05-10T04:49:26;26.70;;;16.80;;
37903;SDS011;23738;50.422;18.758;2023-05-10T04:51:53;30.00;;;17.80;;
37903;SDS011;23738;50.422;18.758;2023-05-10T04:54:21;37.80;;;19.40;;
37903;SDS011;23738;50.422;18.758;2023-05-10T04:56:48;39.20;;;19.70;;
37903;SDS011;23738;50.422;18.758;2023-05-10T04:59:15;39.00;;;20.00;;
37903;SDS011;23738;50.422;18.758;2023-05-10T05:01:42;34.70;;;20.00;;
37903;SDS011;23738;50.422;18.758;2023-05-10T05:04:10;42.60;;;20.00;;
37903;SDS011;23738;50.422;18.758;2023-05-10T05:06:37;31.60;;;18.90;;
37903;SDS011;23738;50.422;18.758;2023-05-10T05:09:04;30.00;;;17.50;;
37903;SDS011;23738;50.422;18.758;2023-05-10T05:11:31;45.50;;;16.60;;
37903;SDS011;23738;50.422;18.758;2023-05-10T05:13:58;30.00;;;15.90;;
37903;SDS011;23738;50.422;18.758;2023-05-10T05:16:26;21.00;;;13.90;;
37903;SDS011;23738;50.422;18.758;2023-05-10T05:18:53;24.10;;;14.40;;
37903;SDS011;23738;50.422;18.758;2023-05-10T05:21:21;24.60;;;14.20;;
37903;SDS011;23738;50.422;18.758;2023-05-10T05:23:50;24.60;;;13.80;;
37903;SDS011;23738;50.422;18.758;2023-05-10T05:26:17;26.00;;;13.70;;
37903;SDS011;23738;50.422;18.758;2023-05-10T05:28:44;19.50;;;12.90;;
37903;SDS011;23738;50.422;18.758;2023-05-10T05:31:11;18.40;;;12.00;;
37903;SDS011;23738;50.422;18.758;2023-05-10T05:33:39;20.90;;;12.10;;
37903;SDS011;23738;50.422;18.758;2023-05-10T05:36:06;22.90;;;12.80;;
37903;SDS011;23738;50.422;18.758;2023-05-10T05:38:34;19.50;;;11.30;;
37903;SDS011;23738;50.422;18.758;2023-05-10T05:41:01;17.10;;;10.10;;
37903;SDS011;23738;50.422;18.758;2023-05-10T05:43:29;16.70;;;10.40;;
37903;SDS011;23738;50.422;18.758;2023-05-10T05:45:56;14.60;;;10.40;;
37903;SDS011;23738;50.422;18.758;2023-05-10T05:48:23;12.20;;;9.40;;
37903;SDS011;23738;50.422;18.758;2023-05-10T05:50:50;13.30;;;9.50;;
37903;SDS011;23738;50.422;18.758;2023-05-10T05:53:22;13.60;;;8.70;;
37903;SDS011;23738;50.422;18.758;2023-05-10T05:55:52;10.80;;;7.80;;
37903;SDS011;23738;50.422;18.758;2023-05-10T05:58:21;15.80;;;9.50;;
37903;SDS011;23738;50.422;18.758;2023-05-10T06:00:48;11.20;;;8.80;;
37903;SDS011;23738;50.422;18.758;2023-05-10T06:03:17;12.90;;;8.40;;
37903;SDS011;23738;50.422;18.758;2023-05-10T06:05:45;17.70;;;8.90;;
37903;SDS011;23738;50.422;18.758;2023-05-10T06:08:12;16.10;;;8.30;;
37903;SDS011;23738;50.422;18.758;2023-05-10T06:10:39;9.00;;;7.40;;
37903;SDS011;23738;50.422;18.758;2023-05-10T06:13:07;9.50;;;6.50;;
37903;SDS011;23738;50.422;18.758;2023-05-10T06:15:36;14.30;;;6.60;;
37903;SDS011;23738;50.422;18.758;2023-05-10T06:18:03;8.20;;;6.80;;
37903;SDS011;23738;50.422;18.758;2023-05-10T06:20:31;8.50;;;6.30;;
37903;SDS011;23738;50.422;18.758;2023-05-10T06:22:58;12.60;;;6.70;;
37903;SDS011;23738;50.422;18.758;2023-05-10T06:25:25;9.30;;;6.10;;
37903;SDS011;23738;50.422;18.758;2023-05-10T06:27:53;6.90;;;5.90;;
37903;SDS011;23738;50.422;18.758;2023-05-10T06:30:24;6.50;;;5.50;;
37903;SDS011;23738;50.422;18.758;2023-05-10T06:32:53;6.20;;;4.80;;
37903;SDS011;23738;50.422;18.758;2023-05-10T06:35:21;9.10;;;5.40;;
37903;SDS011;23738;50.422;18.758;2023-05-10T06:37:49;6.30;;;4.30;;
37903;SDS011;23738;50.422;18.758;2023-05-10T06:40:17;10.00;;;4.90;;
37903;SDS011;23738;50.422;18.758;2023-05-10T06:42:45;5.60;;;4.00;;
37903;SDS011;23738;50.422;18.758;2023-05-10T06:45:12;9.10;;;4.20;;
37903;SDS011;23738;50.422;18.758;2023-05-10T06:47:40;9.80;;;4.30;;
37903;SDS011;23738;50.422;18.758;2023-05-10T06:50:08;6.60;;;4.10;;
37903;SDS011;23738;50.422;18.758;2023-05-10T06:52:37;5.90;;;4.00;;
37903;SDS011;23738;50.422;18.758;2023-05-10T06:55:05;5.70;;;4.10;;
37903;SDS011;23738;50.422;18.758;2023-05-10T06:57:34;5.40;;;3.50;;
37903;SDS011;23738;50.422;18.758;2023-05-10T07:00:02;10.10;;;3.30;;
37903;SDS011;23738;50.422;18.758;2023-05-10T07:02:30;6.20;;;3.20;;
37903;SDS011;23738;50.422;18.758;2023-05-10T07:04:57;5.10;;;2.90;;
37903;SDS011;23738;50.422;18.758;2023-05-10T07:07:24;3.20;;;2.70;;
37903;SDS011;23738;50.422;18.758;2023-05-10T07:09:51;6.10;;;2.50;;
37903;SDS011;23738;50.422;18.758;2023-05-10T07:12:19;2.80;;;2.50;;
37903;SDS011;23738;50.422;18.758;2023-05-10T07:14:46;5.30;;;3.00;;
37903;SDS011;23738;50.422;18.758;2023-05-10T07:17:13;2.30;;;2.00;;
37903;SDS011;23738;50.422;18.758;2023-05-10T07:19:40;4.50;;;2.70;;
37903;SDS011;23738;50.422;18.758;2023-05-10T07:22:08;5.20;;;2.80;;
37903;SDS011;23738;50.422;18.758;2023-05-10T07:24:35;4.70;;;2.50;;
37903;SDS011;23738;50.422;18.758;2023-05-10T07:27:02;3.10;;;2.30;;
37903;SDS011;23738;50.422;18.758;2023-05-10T07:29:30;4.90;;;3.20;;
37903;SDS011;23738;50.422;18.758;2023-05-10T07:31:57;7.20;;;2.50;;
37903;SDS011;23738;50.422;18.758;2023-05-10T07:34:24;6.80;;;2.30;;
37903;SDS011;23738;50.422;18.758;2023-05-10T07:36:52;4.10;;;2.20;;
37903;SDS011;23738;50.422;18.758;2023-05-10T07:39:19;4.40;;;2.50;;
37903;SDS011;23738;50.422;18.758;2023-05-10T07:41:46;7.90;;;2.30;;
37903;SDS011;23738;50.422;18.758;2023-05-10T07:44:13;7.70;;;2.50;;
37903;SDS011;23738;50.422;18.758;2023-05-10T07:46:40;5.00;;;2.10;;
37903;SDS011;23738;50.422;18.758;2023-05-10T07:49:08;4.70;;;2.00;;
37903;SDS011;23738;50.422;18.758;2023-05-10T07:51:35;5.40;;;1.70;;
37903;SDS011;23738;50.422;18.758;2023-05-10T07:54:02;3.90;;;2.30;;
37903;SDS011;23738;50.422;18.758;2023-05-10T07:56:30;4.90;;;2.00;;
37903;SDS011;23738;50.422;18.758;2023-05-10T07:58:58;2.40;;;1.90;;
37903;SDS011;23738;50.422;18.758;2023-05-10T08:01:26;4.00;;;1.80;;
37903;SDS011;23738;50.422;18.758;2023-05-10T08:03:56;4.90;;;1.90;;
37903;SDS011;23738;50.422;18.758;2023-05-10T08:06:26;4.80;;;2.00;;
37903;SDS011;23738;50.422;18.758;2023-05-10T08:09:03;6.90;;;2.00;;
37903;SDS011;23738;50.422;18.758;2023-05-10T08:11:30;4.60;;;2.10;;
37903;SDS011;23738;50.422;18.758;2023-05-10T08:13:58;10.40;;;1.90;;
37903;SDS011;23738;50.422;18.758;2023-05-10T08:16:25;3.30;;;1.90;;
37903;SDS011;23738;50.422;18.758;2023-05-10T08:18:53;6.10;;;1.90;;
37903;SDS011;23738;50.422;18.758;2023-05-10T08:21:21;3.70;;;1.90;;
37903;SDS011;23738;50.422;18.758;2023-05-10T08:23:48;6.10;;;1.70;;
37903;SDS011;23738;50.422;18.758;2023-05-10T08:26:15;5.70;;;2.00;;
37903;SDS011;23738;50.422;18.758;2023-05-10T08:28:42;3.20;;;1.50;;
37903;SDS011;23738;50.422;18.758;2023-05-10T08:31:09;3.00;;;1.50;;
37903;SDS011;23738;50.422;18.758;2023-05-10T08:33:37;2.70;;;1.30;;
37903;SDS011;23738;50.422;18.758;2023-05-10T08:36:04;2.30;;;1.40;;
37903;SDS011;23738;50.422;18.758;2023-05-10T08:38:32;2.10;;;1.10;;
37903;SDS011;23738;50.422;18.758;2023-05-10T08:40:59;3.40;;;1.40;;
37903;SDS011;23738;50.422;18.758;2023-05-10T08:43:29;2.60;;;1.30;;
37903;SDS011;23738;50.422;18.758;2023-05-10T08:45:57;3.00;;;1.20;;
37903;SDS011;23738;50.422;18.758;2023-05-10T08:48:28;3.90;;;1.40;;
37903;SDS011;23738;50.422;18.758;2023-05-10T08:50:57;4.00;;;1.40;;
37903;SDS011;23738;50.422;18.758;2023-05-10T08:53:28;4.70;;;1.40;;
37903;SDS011;23738;50.422;18.758;2023-05-10T08:55:57;4.70;;;1.30;;
37903;SDS011;23738;50.422;18.758;2023-05-10T08:58:25;2.90;;;1.20;;
37903;SDS011;23738;50.422;18.758;2023-05-10T09:00:53;5.20;;;1.50;;
37903;SDS011;23738;50.422;18.758;2023-05-10T09:03:20;1.90;;;1.30;;
37903;SDS011;23738;50.422;18.758;2023-05-10T09:05:48;4.10;;;1.40;;
37903;SDS011;23738;50.422;18.758;2023-05-10T09:08:15;3.00;;;1.30;;
37903;SDS011;23738;50.422;18.758;2023-05-10T09:10:44;4.70;;;1.20;;
37903;SDS011;23738;50.422;18.758;2023-05-10T09:13:13;4.70;;;1.50;;
37903;SDS011;23738;50.422;18.758;2023-05-10T09:15:41;3.00;;;1.30;;
37903;SDS011;23738;50.422;18.758;2023-05-10T09:18:09;6.60;;;1.00;;
37903;SDS011;23738;50.422;18.758;2023-05-10T09:20:36;5.90;;;1.30;;
37903;SDS011;23738;50.422;18.758;2023-05-10T09:23:03;3.90;;;1.40;;
37903;SDS011;23738;50.422;18.758;2023-05-10T09:25:31;3.20;;;1.20;;
37903;SDS011;23738;50.422;18.758;2023-05-10T09:27:59;3.90;;;1.30;;
37903;SDS011;23738;50.422;18.758;2023-05-10T09:30:27;1.80;;;1.40;;
37903;SDS011;23738;50.422;18.758;2023-05-10T09:32:55;1.50;;;1.00;;
37903;SDS011;23738;50.422;18.758;2023-05-10T09:35:24;1.50;;;1.10;;
37903;SDS011;23738;50.422;18.758;2023-05-10T09:37:53;5.80;;;1.00;;
37903;SDS011;23738;50.422;18.758;2023-05-10T09:40:22;2.20;;;1.30;;
37903;SDS011;23738;50.422;18.758;2023-05-10T09:42:52;1.60;;;1.10;;
37903;SDS011;23738;50.422;18.758;2023-05-10T09:45:23;3.90;;;1.00;;
37903;SDS011;23738;50.422;18.758;2023-05-10T09:47:52;4.20;;;1.30;;
37903;SDS011;23738;50.422;18.758;2023-05-10T09:50:20;3.40;;;1.20;;
37903;SDS011;23738;50.422;18.758;2023-05-10T09:52:48;1.50;;;1.10;;
37903;SDS011;23738;50.422;18.758;2023-05-10T09:55:17;3.60;;;1.00;;
37903;SDS011;23738;50.422;18.758;2023-05-10T09:57:46;7.80;;;1.10;;
37903;SDS011;23738;50.422;18.758;2023-05-10T10:00:17;3.20;;;1.00;;
37903;SDS011;23738;50.422;18.758;2023-05-10T10:02:46;3.30;;;1.00;;
37903;SDS011;23738;50.422;18.758;2023-05-10T10:05:14;4.20;;;1.20;;
37903;SDS011;23738;50.422;18.758;2023-05-10T10:07:42;3.30;;;1.10;;
37903;SDS011;23738;50.422;18.758;2023-05-10T10:10:09;5.10;;;1.30;;
37903;SDS011;23738;50.422;18.758;2023-05-10T10:12:38;1.80;;;1.00;;
37903;SDS011;23738;50.422;18.758;2023-05-10T10:15:08;1.60;;;1.10;;
37903;SDS011;23738;50.422;18.758;2023-05-10T10:17:36;1.60;;;1.10;;
37903;SDS011;23738;50.422;18.758;2023-05-10T10:20:06;3.20;;;1.30;;
37903;SDS011;23738;50.422;18.758;2023-05-10T10:22:35;9.50;;;1.20;;
37903;SDS011;23738;50.422;18.758;2023-05-10T10:25:05;6.20;;;1.20;;
37903;SDS011;23738;50.422;18.758;2023-05-10T10:27:36;2.20;;;1.20;;
37903;SDS011;23738;50.422;18.758;2023-05-10T10:30:13;1.60;;;0.90;;
37903;SDS011;23738;50.422;18.758;2023-05-10T10:32:55;2.00;;;1.10;;
37903;SDS011;23738;50.422;18.758;2023-05-10T10:35:35;2.30;;;1.20;;
37903;SDS011;23738;50.422;18.758;2023-05-10T10:38:02;2.70;;;1.30;;
37903;SDS011;23738;50.422;18.758;2023-05-10T10:40:30;2.20;;;1.80;;
37903;SDS011;23738;50.422;18.758;2023-05-10T10:43:20;2.60;;;1.20;;
37903;SDS011;23738;50.422;18.758;2023-05-10T10:48:38;2.30;;;1.20;;
37903;SDS011;23738;50.422;18.758;2023-05-10T10:51:07;2.30;;;1.50;;
37903;SDS011;23738;50.422;18.758;2023-05-10T10:53:34;4.80;;;1.50;;
37903;SDS011;23738;50.422;18.758;2023-05-10T10:56:05;2.40;;;1.30;;
37903;SDS011;23738;50.422;18.758;2023-05-10T10:58:35;3.70;;;1.20;;
37903;SDS011;23738;50.422;18.758;2023-05-10T11:01:11;4.50;;;1.20;;
37903;SDS011;23738;50.422;18.758;2023-05-10T11:03:54;3.10;;;1.50;;
37903;SDS011;23738;50.422;18.758;2023-05-10T11:06:42;7.60;;;3.10;;
37903;SDS011;23738;50.422;18.758;2023-05-10T11:09:10;3.50;;;1.90;;
37903;SDS011;23738;50.422;18.758;2023-05-10T11:11:48;4.40;;;2.00;;
37903;SDS011;23738;50.422;18.758;2023-05-10T11:14:22;6.90;;;1.60;;
37903;SDS011;23738;50.422;18.758;2023-05-10T11:16:52;2.20;;;1.50;;
37903;SDS011;23738;50.422;18.758;2023-05-10T11:19:20;4.90;;;1.70;;
37903;SDS011;23738;50.422;18.758;2023-05-10T11:21:47;4.70;;;1.30;;
37903;SDS011;23738;50.422;18.758;2023-05-10T11:24:16;3.50;;;1.30;;
37903;SDS011;23738;50.422;18.758;2023-05-10T11:26:45;4.90;;;1.30;;
37903;SDS011;23738;50.422;18.758;2023-05-10T11:29:12;4.60;;;1.80;;
37903;SDS011;23738;50.422;18.758;2023-05-10T11:31:44;4.30;;;1.40;;
37903;SDS011;23738;50.422;18.758;2023-05-10T11:34:23;24.90;;;2.90;;
37903;SDS011;23738;50.422;18.758;2023-05-10T11:36:51;2.90;;;1.40;;
37903;SDS011;23738;50.422;18.758;2023-05-10T11:39:20;2.60;;;1.40;;
37903;SDS011;23738;50.422;18.758;2023-05-10T11:41:48;2.50;;;0.90;;
37903;SDS011;23738;50.422;18.758;2023-05-10T11:44:15;4.40;;;1.10;;
37903;SDS011;23738;50.422;18.758;2023-05-10T11:46:43;1.40;;;1.20;;
37903;SDS011;23738;50.422;18.758;2023-05-10T11:49:10;2.60;;;1.00;;
37903;SDS011;23738;50.422;18.758;2023-05-10T11:51:39;2.10;;;1.10;;
37903;SDS011;23738;50.422;18.758;2023-05-10T11:54:08;4.70;;;1.50;;
37903;SDS011;23738;50.422;18.758;2023-05-10T11:56:36;6.10;;;1.50;;
37903;SDS011;23738;50.422;18.758;2023-05-10T11:59:04;1.70;;;1.00;;
37903;SDS011;23738;50.422;18.758;2023-05-10T12:01:32;1.90;;;1.70;;
37903;SDS011;23738;50.422;18.758;2023-05-10T12:03:59;4.30;;;1.30;;
37903;SDS011;23738;50.422;18.758;2023-05-10T12:06:28;1.70;;;1.30;;
37903;SDS011;23738;50.422;18.758;2023-05-10T12:08:56;4.30;;;1.10;;
37903;SDS011;23738;50.422;18.758;2023-05-10T12:11:25;2.80;;;1.20;;
37903;SDS011;23738;50.422;18.758;2023-05-10T12:13:53;3.50;;;1.40;;
37903;SDS011;23738;50.422;18.758;2023-05-10T12:16:22;3.40;;;1.00;;
37903;SDS011;23738;50.422;18.758;2023-05-10T12:18:51;5.40;;;1.40;;
37903;SDS011;23738;50.422;18.758;2023-05-10T12:21:19;2.60;;;1.30;;
37903;SDS011;23738;50.422;18.758;2023-05-10T12:23:48;3.70;;;1.20;;
37903;SDS011;23738;50.422;18.758;2023-05-10T12:26:16;2.60;;;1.10;;
37903;SDS011;23738;50.422;18.758;2023-05-10T12:28:43;2.20;;;1.20;;
37903;SDS011;23738;50.422;18.758;2023-05-10T12:31:10;1.90;;;1.30;;
37903;SDS011;23738;50.422;18.758;2023-05-10T12:33:38;2.10;;;1.30;;
37903;SDS011;23738;50.422;18.758;2023-05-10T12:36:08;2.00;;;1.10;;
37903;SDS011;23738;50.422;18.758;2023-05-10T12:38:37;3.20;;;1.30;;
37903;SDS011;23738;50.422;18.758;2023-05-10T12:41:06;3.90;;;1.30;;
37903;SDS011;23738;50.422;18.758;2023-05-10T12:43:35;2.70;;;1.20;;
37903;SDS011;23738;50.422;18.758;2023-05-10T12:46:06;6.80;;;1.30;;
37903;SDS011;23738;50.422;18.758;2023-05-10T12:48:34;3.30;;;1.30;;
37903;SDS011;23738;50.422;18.758;2023-05-10T12:51:02;2.70;;;1.20;;
37903;SDS011;23738;50.422;18.758;2023-05-10T12:53:30;4.80;;;1.20;;
37903;SDS011;23738;50.422;18.758;2023-05-10T12:55:58;2.80;;;1.40;;
37903;SDS011;23738;50.422;18.758;2023-05-10T12:58:25;5.70;;;1.90;;
37903;SDS011;23738;50.422;18.758;2023-05-10T13:00:52;2.50;;;1.50;;
37903;SDS011;23738;50.422;18.758;2023-05-10T13:03:22;1.80;;;1.20;;
37903;SDS011;23738;50.422;18.758;2023-05-10T13:05:49;7.10;;;1.40;;
37903;SDS011;23738;50.422;18.758;2023-05-10T13:08:16;5.20;;;1.40;;
37903;SDS011;23738;50.422;18.758;2023-05-10T13:10:44;3.70;;;1.30;;
37903;SDS011;23738;50.422;18.758;2023-05-10T13:13:11;2.60;;;1.10;;
37903;SDS011;23738;50.422;18.758;2023-05-10T13:15:39;3.10;;;1.20;;
37903;SDS011;23738;50.422;18.758;2023-05-10T13:18:06;4.10;;;1.40;;
37903;SDS011;23738;50.422;18.758;2023-05-10T13:20:34;2.70;;;1.20;;
37903;SDS011;23738;50.422;18.758;2023-05-10T13:23:01;4.10;;;1.30;;
37903;SDS011;23738;50.422;18.758;2023-05-10T13:25:28;2.30;;;1.40;;
37903;SDS011;23738;50.422;18.758;2023-05-10T13:27:56;2.10;;;1.40;;
37903;SDS011;23738;50.422;18.758;2023-05-10T13:30:23;1.60;;;1.40;;
37903;SDS011;23738;50.422;18.758;2023-05-10T13:32:51;4.50;;;1.50;;
37903;SDS011;23738;50.422;18.758;2023-05-10T13:35:18;3.40;;;1.00;;
37903;SDS011;23738;50.422;18.758;2023-05-10T13:37:46;2.40;;;1.30;;
37903;SDS011;23738;50.422;18.758;2023-05-10T13:40:13;2.70;;;1.50;;
37903;SDS011;23738;50.422;18.758;2023-05-10T13:42:41;2.80;;;1.50;;
37903;SDS011;23738;50.422;18.758;2023-05-10T13:45:10;2.70;;;1.30;;
37903;SDS011;23738;50.422;18.758;2023-05-10T13:47:38;3.00;;;1.40;;
37903;SDS011;23738;50.422;18.758;2023-05-10T13:50:07;3.40;;;1.20;;
37903;SDS011;23738;50.422;18.758;2023-05-10T13:52:35;2.90;;;1.10;;
37903;SDS011;23738;50.422;18.758;2023-05-10T13:55:03;3.30;;;1.60;;
37903;SDS011;23738;50.422;18.758;2023-05-10T13:57:32;9.90;;;2.40;;
37903;SDS011;23738;50.422;18.758;2023-05-10T14:00:01;4.50;;;1.70;;
37903;SDS011;23738;50.422;18.758;2023-05-10T14:02:29;2.40;;;1.30;;
37903;SDS011;23738;50.422;18.758;2023-05-10T14:04:57;5.50;;;1.30;;
37903;SDS011;23738;50.422;18.758;2023-05-10T14:07:24;6.20;;;1.50;;
37903;SDS011;23738;50.422;18.758;2023-05-10T14:09:51;4.60;;;1.50;;
37903;SDS011;23738;50.422;18.758;2023-05-10T14:12:19;3.30;;;1.10;;
37903;SDS011;23738;50.422;18.758;2023-05-10T14:14:46;1.50;;;0.90;;
37903;SDS011;23738;50.422;18.758;2023-05-10T14:17:13;6.80;;;1.30;;
37903;SDS011;23738;50.422;18.758;2023-05-10T14:19:41;2.70;;;1.30;;
37903;SDS011;23738;50.422;18.758;2023-05-10T14:22:08;4.50;;;1.40;;
37903;SDS011;23738;50.422;18.758;2023-05-10T14:24:35;3.00;;;1.30;;
37903;SDS011;23738;50.422;18.758;2023-05-10T14:27:04;4.20;;;1.30;;
37903;SDS011;23738;50.422;18.758;2023-05-10T14:29:31;3.30;;;1.20;;
37903;SDS011;23738;50.422;18.758;2023-05-10T14:31:59;5.60;;;1.50;;
37903;SDS011;23738;50.422;18.758;2023-05-10T14:34:26;3.50;;;1.30;;
37903;SDS011;23738;50.422;18.758;2023-05-10T14:36:54;7.50;;;2.10;;
37903;SDS011;23738;50.422;18.758;2023-05-10T14:39:21;5.30;;;4.10;;
37903;SDS011;23738;50.422;18.758;2023-05-10T14:41:49;7.00;;;4.80;;
37903;SDS011;23738;50.422;18.758;2023-05-10T14:44:17;4.60;;;1.90;;
37903;SDS011;23738;50.422;18.758;2023-05-10T14:46:45;4.90;;;2.50;;
37903;SDS011;23738;50.422;18.758;2023-05-10T14:49:13;4.60;;;2.50;;